createdAt,value
2023-05-01T00:01:11.839Z,13.88
2023-05-01T00:03:14.643Z,11.43
2023-05-01T00:05:16.699Z,13.70
2023-05-01T00:07:18.804Z,15.13
2023-05-01T00:09:20.612Z,15.75
2023-05-01T00:11:22.880Z,12.80
2023-05-01T00:13:24.783Z,19.83
2023-05-01T00:15:26.611Z,13.30
2023-05-01T00:17:28.546Z,16.55
2023-05-01T00:19:30.419Z,15.63
2023-05-01T00:21:32.269Z,18.67
2023-05-01T00:23:34.111Z,26.00
2023-05-01T00:25:35.901Z,13.90
2023-05-01T00:27:37.740Z,14.00
2023-05-01T00:29:39.552Z,14.50
2023-05-01T00:31:45.793Z,15.10
2023-05-01T00:33:47.719Z,16.67
2023-05-01T00:35:49.574Z,16.98
2023-05-01T00:37:51.383Z,17.35
2023-05-01T00:39:53.222Z,19.43
2023-05-01T00:41:56.064Z,18.55
2023-05-01T00:43:58.450Z,14.73
2023-05-01T00:46:00.578Z,16.27
2023-05-01T00:48:03.212Z,14.20
2023-05-01T00:50:06.003Z,13.82
2023-05-01T00:54:11.799Z,17.90
2023-05-01T00:56:13.728Z,15.10
2023-05-01T00:58:17.075Z,15.48
2023-05-01T01:00:19.584Z,18.15
2023-05-01T01:02:21.485Z,18.25
2023-05-01T01:04:23.384Z,17.10
2023-05-01T01:06:34.173Z,18.63
2023-05-01T01:09:08.248Z,14.63
2023-05-01T01:11:20.420Z,16.48
2023-05-01T01:13:51.278Z,15.25
2023-05-01T01:16:30.164Z,13.70
2023-05-01T01:18:43.361Z,16.35
2023-05-01T01:20:57.715Z,14.68
2023-05-01T01:23:24.812Z,25.05
2023-05-01T01:25:30.383Z,20.65
2023-05-01T01:28:11.645Z,17.25
2023-05-01T01:30:18.059Z,23.77
2023-05-01T01:32:27.753Z,22.58
2023-05-01T01:34:48.471Z,22.95
2023-05-01T01:36:56.767Z,20.75
2023-05-01T01:39:31.466Z,24.75
2023-05-01T01:41:34.232Z,24.20
2023-05-01T01:43:40.301Z,22.40
2023-05-01T01:45:43.434Z,17.55
2023-05-01T01:47:45.566Z,20.27
2023-05-01T01:49:50.047Z,19.52
2023-05-01T01:51:52.577Z,20.45
2023-05-01T01:53:54.568Z,22.13
2023-05-01T01:55:57.462Z,19.50
2023-05-01T01:57:59.351Z,19.50
2023-05-01T02:00:01.197Z,25.80
2023-05-01T02:02:03.505Z,23.52
2023-05-01T02:04:05.517Z,22.65
2023-05-01T02:06:07.714Z,20.52
2023-05-01T02:08:09.847Z,20.83
2023-05-01T02:10:12.787Z,21.58
2023-05-01T02:12:14.878Z,22.30
2023-05-01T02:14:16.767Z,23.45
2023-05-01T02:16:18.648Z,22.63
2023-05-01T02:18:20.632Z,21.83
2023-05-01T02:20:22.585Z,22.92
2023-05-01T02:22:25.980Z,20.48
2023-05-01T02:24:28.287Z,23.10
2023-05-01T02:26:30.682Z,21.88
2023-05-01T02:28:33.332Z,22.73
2023-05-01T02:32:36.997Z,25.27
2023-05-01T02:34:38.783Z,25.88
2023-05-01T02:36:40.645Z,19.40
2023-05-01T02:38:42.838Z,24.73
2023-05-01T02:40:47.058Z,25.98
2023-05-01T02:42:48.984Z,22.95
2023-05-01T02:45:04.644Z,28.52
2023-05-01T02:47:08.178Z,25.92
2023-05-01T02:49:10.014Z,23.35
2023-05-01T02:51:11.835Z,23.40
2023-05-01T02:53:15.710Z,22.00
2023-05-01T02:55:17.771Z,24.50
2023-05-01T02:57:20.427Z,25.17
2023-05-01T03:01:24.209Z,29.20
2023-05-01T03:03:28.016Z,24.08
2023-05-01T03:05:29.836Z,28.88
2023-05-01T03:07:35.303Z,25.50
2023-05-01T03:09:37.580Z,34.17
2023-05-01T03:11:39.405Z,26.80
2023-05-01T03:13:41.280Z,23.00
2023-05-01T03:15:43.386Z,26.77
2023-05-01T03:17:45.241Z,23.27
2023-05-01T03:19:47.166Z,23.63
2023-05-01T03:21:49.015Z,21.33
2023-05-01T03:23:51.132Z,23.17
2023-05-01T03:25:52.985Z,24.38
2023-05-01T03:27:55.368Z,19.63
2023-05-01T03:29:57.803Z,29.45
2023-05-01T03:32:00.313Z,22.10
2023-05-01T03:34:02.149Z,25.85
2023-05-01T03:36:05.680Z,25.27
2023-05-01T03:38:08.099Z,28.15
2023-05-01T03:40:10.503Z,22.05
2023-05-01T03:42:12.331Z,20.42
2023-05-01T03:44:14.172Z,23.10
2023-05-01T03:46:16.027Z,19.05
2023-05-01T03:48:19.842Z,19.42
2023-05-01T03:52:23.479Z,21.30
2023-05-01T03:54:25.926Z,19.98
2023-05-01T03:56:28.226Z,20.83
2023-05-01T03:58:30.024Z,24.92
2023-05-01T04:00:32.515Z,25.85
2023-05-01T04:02:34.464Z,31.77
2023-05-01T04:04:36.375Z,24.00
2023-05-01T04:06:38.277Z,26.00
2023-05-01T04:08:40.115Z,22.90
2023-05-01T04:10:41.923Z,21.13
2023-05-01T04:12:43.832Z,28.48
2023-05-01T04:14:45.746Z,23.77
2023-05-01T04:16:47.756Z,20.52
2023-05-01T04:18:49.569Z,21.90
2023-05-01T04:20:51.792Z,23.73
2023-05-01T04:22:53.644Z,22.00
2023-05-01T04:24:56.044Z,23.77
2023-05-01T04:26:58.733Z,24.90
2023-05-01T04:31:02.903Z,22.03
2023-05-01T04:33:11.460Z,25.40
2023-05-01T04:35:13.431Z,25.38
2023-05-01T04:37:17.963Z,25.75
2023-05-01T04:39:19.858Z,26.00
2023-05-01T04:41:21.853Z,25.63
2023-05-01T04:43:23.834Z,28.42
2023-05-01T04:45:25.764Z,23.77
2023-05-01T04:47:28.927Z,30.55
2023-05-01T04:49:31.206Z,26.60
2023-05-01T04:51:33.077Z,26.92
2023-05-01T04:53:34.899Z,25.25
2023-05-01T04:55:37.020Z,21.50
2023-05-01T04:57:38.828Z,27.85
2023-05-01T04:59:40.730Z,27.27
2023-05-01T05:01:42.631Z,25.27
2023-05-01T05:03:46.526Z,26.77
2023-05-01T05:05:49.884Z,30.60
2023-05-01T05:07:51.684Z,28.85
2023-05-01T05:09:53.568Z,32.00
2023-05-01T05:11:55.442Z,31.20
2023-05-01T05:13:57.296Z,30.80
2023-05-01T05:15:59.195Z,37.28
2023-05-01T05:18:01.056Z,35.67
2023-05-01T05:20:03.072Z,31.13
2023-05-01T05:22:05.110Z,38.85
2023-05-01T05:24:06.990Z,33.95
2023-05-01T05:26:08.889Z,31.13
2023-05-01T05:28:10.720Z,25.52
2023-05-01T05:30:12.870Z,30.80
2023-05-01T05:32:14.885Z,30.20
2023-05-01T05:34:17.479Z,24.73
2023-05-01T05:36:19.305Z,22.95
2023-05-01T05:38:21.306Z,22.63
2023-05-01T05:40:23.106Z,25.77
2023-05-01T05:42:24.930Z,25.55
2023-05-01T05:44:26.801Z,22.40
2023-05-01T05:46:28.721Z,23.33
2023-05-01T05:48:30.737Z,21.48
2023-05-01T05:50:32.568Z,21.95
2023-05-01T05:52:34.618Z,25.90
2023-05-01T05:54:36.617Z,25.83
2023-05-01T05:56:38.488Z,22.55
2023-05-01T05:58:40.287Z,22.42
2023-05-01T06:00:42.293Z,25.47
2023-05-01T06:02:44.166Z,33.80
2023-05-01T06:04:46.250Z,23.55
2023-05-01T06:06:49.076Z,25.25
2023-05-01T06:08:50.902Z,20.10
2023-05-01T06:10:52.841Z,23.10
2023-05-01T06:13:10.956Z,20.67
2023-05-01T06:15:17.147Z,21.08
2023-05-01T06:17:19.002Z,17.02
2023-05-01T06:19:20.944Z,16.38
2023-05-01T06:21:22.778Z,13.65
2023-05-01T06:23:24.618Z,15.85
2023-05-01T06:25:26.527Z,12.48
2023-05-01T06:27:28.430Z,12.02
2023-05-01T06:29:31.120Z,10.50
2023-05-01T06:33:34.839Z,9.32
2023-05-01T06:35:38.861Z,11.60
2023-05-01T06:37:40.717Z,13.38
2023-05-01T06:39:42.639Z,13.30
2023-05-01T06:41:47.544Z,15.50
2023-05-01T06:43:49.398Z,13.32
2023-05-01T06:45:51.362Z,13.65
2023-05-01T06:47:54.130Z,16.65
2023-05-01T06:49:56.191Z,15.60
2023-05-01T06:51:58.294Z,12.65
2023-05-01T06:54:00.126Z,15.05
2023-05-01T06:56:01.943Z,18.37
2023-05-01T06:58:12.655Z,15.37
2023-05-01T07:00:18.938Z,13.63
2023-05-01T07:02:21.265Z,14.13
2023-05-01T07:04:23.939Z,18.83
2023-05-01T07:06:26.010Z,15.95
2023-05-01T07:08:28.363Z,17.00
2023-05-01T07:10:30.843Z,15.32
2023-05-01T07:12:32.768Z,16.17
2023-05-01T07:14:35.702Z,11.77
2023-05-01T07:16:37.753Z,17.48
2023-05-01T07:18:39.643Z,19.58
2023-05-01T07:20:42.074Z,18.58
2023-05-01T07:22:44.125Z,20.83
2023-05-01T07:24:45.935Z,13.70
2023-05-01T07:26:47.965Z,12.57
2023-05-01T07:28:49.775Z,15.43
2023-05-01T07:30:51.746Z,12.77
2023-05-01T07:32:53.623Z,18.85
2023-05-01T07:34:55.555Z,14.40
2023-05-01T07:36:57.553Z,10.95
2023-05-01T07:38:59.462Z,13.57
2023-05-01T07:41:01.349Z,9.43
2023-05-01T07:43:03.235Z,10.45
2023-05-01T07:45:05.522Z,12.70
2023-05-01T07:47:08.342Z,11.27
2023-05-01T07:49:10.172Z,10.32
2023-05-01T07:51:11.978Z,13.27
2023-05-01T07:53:13.958Z,9.53
2023-05-01T07:55:16.038Z,11.07
2023-05-01T07:57:18.077Z,13.18
2023-05-01T07:59:19.905Z,12.13
2023-05-01T08:01:21.726Z,11.02
2023-05-01T08:03:23.778Z,10.90
2023-05-01T08:05:26.026Z,9.82
2023-05-01T08:07:27.949Z,11.63
2023-05-01T08:09:29.721Z,8.85
2023-05-01T08:11:33.524Z,9.33
2023-05-01T08:13:35.584Z,9.82
2023-05-01T08:15:39.259Z,8.07
2023-05-01T08:17:41.212Z,13.65
2023-05-01T08:19:43.208Z,9.40
2023-05-01T08:21:45.053Z,11.23
2023-05-01T08:23:46.889Z,9.82
2023-05-01T08:25:51.192Z,8.83
2023-05-01T08:27:52.983Z,13.75
2023-05-01T08:29:55.081Z,7.60
2023-05-01T08:31:58.626Z,9.57
2023-05-01T08:34:00.678Z,11.45
2023-05-01T08:36:02.529Z,9.20
2023-05-01T08:38:04.325Z,8.10
2023-05-01T08:40:08.982Z,8.85
2023-05-01T08:42:11.563Z,9.45
2023-05-01T08:44:19.209Z,10.10
2023-05-01T08:46:39.091Z,6.95
2023-05-01T08:48:42.677Z,6.45
2023-05-01T08:50:46.509Z,9.45
2023-05-01T08:52:49.338Z,7.53
2023-05-01T08:54:51.223Z,5.93
2023-05-01T08:56:53.066Z,10.50
2023-05-01T08:58:55.022Z,7.57
2023-05-01T09:00:58.352Z,8.18
2023-05-01T09:03:01.903Z,6.80
2023-05-01T09:05:04.092Z,10.23
2023-05-01T09:07:06.208Z,7.32
2023-05-01T09:09:08.304Z,10.50
2023-05-01T09:11:11.134Z,17.40
2023-05-01T09:13:13.031Z,6.97
2023-05-01T09:15:15.084Z,7.30
2023-05-01T09:17:16.942Z,6.60
2023-05-01T09:19:19.618Z,7.93
2023-05-01T09:21:21.428Z,6.50
2023-05-01T09:23:23.317Z,9.63
2023-05-01T09:25:25.323Z,7.23
2023-05-01T09:27:27.484Z,7.28
2023-05-01T09:29:37.832Z,7.88
2023-05-01T09:31:39.681Z,6.13
2023-05-01T09:33:54.600Z,4.97
2023-05-01T09:35:57.317Z,8.38
2023-05-01T09:40:08.667Z,7.22
2023-05-01T09:42:10.678Z,6.93
2023-05-01T09:44:19.309Z,7.43
2023-05-01T09:46:22.801Z,7.38
2023-05-01T09:48:24.719Z,5.80
2023-05-01T09:50:34.365Z,7.17
2023-05-01T09:52:36.347Z,7.10
2023-05-01T09:54:38.166Z,7.20
2023-05-01T09:56:47.607Z,6.50
2023-05-01T09:58:50.951Z,11.75
2023-05-01T10:00:52.958Z,6.20
2023-05-01T10:02:55.694Z,4.13
2023-05-01T10:05:00.957Z,5.65
2023-05-01T10:07:15.753Z,4.72
2023-05-01T10:09:27.749Z,5.10
2023-05-01T10:11:29.673Z,5.97
2023-05-01T10:13:32.130Z,4.35
2023-05-01T10:15:37.214Z,4.43
2023-05-01T10:17:39.646Z,7.85
2023-05-01T10:19:41.530Z,6.53
2023-05-01T10:21:43.485Z,6.22
2023-05-01T10:23:45.345Z,5.43
2023-05-01T10:25:47.247Z,6.18
2023-05-01T10:27:49.293Z,4.82
2023-05-01T10:29:52.826Z,4.97
2023-05-01T10:31:55.240Z,4.75
2023-05-01T10:33:57.224Z,6.93
2023-05-01T10:35:59.104Z,4.45
2023-05-01T10:38:09.485Z,3.47
2023-05-01T10:40:47.220Z,4.55
2023-05-01T10:43:13.934Z,6.82
2023-05-01T10:45:29.412Z,6.07
2023-05-01T10:47:31.741Z,4.03
2023-05-01T10:50:09.753Z,6.68
2023-05-01T10:52:11.908Z,5.90
2023-05-01T10:54:14.021Z,5.55
2023-05-01T10:56:21.965Z,7.18
2023-05-01T10:58:38.699Z,5.53
2023-05-01T11:00:41.079Z,4.63
2023-05-01T11:02:43.428Z,9.77
2023-05-01T11:04:48.388Z,2.75
2023-05-01T11:07:02.251Z,9.10
2023-05-01T11:09:36.131Z,10.50
2023-05-01T11:11:43.829Z,6.07
2023-05-01T11:14:00.462Z,8.25
2023-05-01T11:16:32.402Z,3.72
2023-05-01T11:18:45.691Z,11.98
2023-05-01T11:20:47.755Z,4.53
2023-05-01T11:22:50.829Z,5.05
2023-05-01T11:24:52.669Z,10.43
2023-05-01T11:26:54.472Z,4.00
2023-05-01T11:28:58.745Z,8.75
2023-05-01T11:31:00.663Z,10.82
2023-05-01T11:33:02.698Z,8.20
2023-05-01T11:35:04.877Z,9.88
2023-05-01T11:37:06.731Z,6.10
2023-05-01T11:39:08.616Z,8.88
2023-05-01T11:41:10.462Z,7.57
2023-05-01T11:43:12.877Z,9.20
2023-05-01T11:45:15.004Z,5.57
2023-05-01T11:47:16.820Z,6.95
2023-05-01T11:49:20.678Z,5.03
2023-05-01T11:51:23.210Z,4.50
2023-05-01T11:53:25.068Z,6.43
2023-05-01T11:55:33.789Z,5.82
2023-05-01T11:57:53.639Z,3.78
2023-05-01T11:59:55.442Z,5.03
2023-05-01T12:01:58.381Z,7.80
2023-05-01T12:04:00.394Z,4.93
2023-05-01T12:06:02.301Z,9.30
2023-05-01T12:08:13.753Z,6.57
2023-05-01T12:10:16.159Z,6.97
2023-05-01T12:12:17.992Z,4.32
2023-05-01T12:14:20.390Z,5.13
2023-05-01T12:16:22.257Z,8.18
2023-05-01T12:18:24.224Z,5.70
2023-05-01T12:20:38.721Z,5.13
2023-05-01T12:22:50.500Z,6.40
2023-05-01T12:24:55.891Z,5.85
2023-05-01T12:27:01.420Z,7.93
2023-05-01T12:29:06.766Z,8.10
2023-05-01T12:31:08.597Z,7.18
2023-05-01T12:33:14.248Z,6.32
2023-05-01T12:35:16.380Z,6.25
2023-05-01T12:37:18.232Z,12.50
2023-05-01T12:39:20.235Z,7.05
2023-05-01T12:41:22.531Z,5.22
2023-05-01T12:43:30.926Z,9.20
2023-05-01T12:45:39.330Z,8.07
2023-05-01T12:47:41.493Z,8.02
2023-05-01T12:49:43.322Z,6.72
2023-05-01T12:51:48.927Z,5.45
2023-05-01T12:53:51.762Z,10.93
2023-05-01T12:55:55.599Z,9.40
2023-05-01T12:57:57.548Z,4.85
2023-05-01T13:00:03.466Z,8.25
2023-05-01T13:02:06.379Z,6.97
2023-05-01T13:04:08.325Z,9.13
2023-05-01T13:06:10.198Z,7.88
2023-05-01T13:08:12.874Z,9.13
2023-05-01T13:10:14.673Z,8.80
2023-05-01T13:12:16.488Z,10.90
2023-05-01T13:14:18.264Z,6.70
2023-05-01T13:16:20.411Z,9.52
2023-05-01T13:18:22.310Z,10.30
2023-05-01T13:20:28.043Z,6.32
2023-05-01T13:22:31.376Z,7.65
2023-05-01T13:24:40.265Z,7.22
2023-05-01T13:26:42.115Z,6.45
2023-05-01T13:28:46.931Z,8.07
2023-05-01T13:30:48.725Z,11.82
2023-05-01T13:32:50.636Z,9.43
2023-05-01T13:34:54.213Z,8.02
2023-05-01T13:36:56.811Z,11.13
2023-05-01T13:41:01.367Z,5.32
2023-05-01T13:43:03.237Z,8.05
2023-05-01T13:45:06.620Z,9.05
2023-05-01T13:47:08.445Z,7.78
2023-05-01T13:49:10.409Z,9.32
2023-05-01T13:51:13.084Z,11.98
2023-05-01T13:53:14.962Z,8.43
2023-05-01T13:55:17.705Z,8.23
2023-05-01T13:57:19.968Z,7.22
2023-05-01T13:59:22.117Z,7.22
2023-05-01T14:01:24.019Z,9.38
2023-05-01T14:03:26.022Z,9.73
2023-05-01T14:05:29.042Z,7.05
2023-05-01T14:07:30.962Z,4.45
2023-05-01T14:09:35.809Z,10.77
2023-05-01T14:11:43.468Z,8.55
2023-05-01T14:13:46.335Z,9.43
2023-05-01T14:15:48.265Z,9.57
2023-05-01T14:17:50.705Z,10.15
2023-05-01T14:21:54.469Z,11.07
2023-05-01T14:23:57.121Z,8.15
2023-05-01T14:25:59.084Z,9.85
2023-05-01T14:28:02.042Z,8.82
2023-05-01T14:30:06.897Z,7.45
2023-05-01T14:32:08.729Z,9.40
2023-05-01T14:34:10.535Z,7.57
2023-05-01T14:36:12.595Z,6.65
2023-05-01T14:38:16.550Z,6.72
2023-05-01T14:40:20.147Z,6.93
2023-05-01T14:42:21.946Z,8.68
2023-05-01T14:44:24.159Z,5.78
2023-05-01T14:46:27.523Z,7.50
2023-05-01T14:48:36.319Z,6.25
2023-05-01T14:50:38.297Z,10.90
2023-05-01T14:52:40.091Z,9.20
2023-05-01T14:54:45.180Z,6.70
2023-05-01T14:56:48.146Z,6.10
2023-05-01T14:58:50.098Z,8.95
2023-05-01T15:00:52.104Z,15.40
2023-05-01T15:02:55.585Z,5.93
2023-05-01T15:04:57.639Z,12.98
2023-05-01T15:06:59.672Z,6.97
2023-05-01T15:09:01.492Z,6.82
2023-05-01T15:11:03.387Z,8.45
2023-05-01T15:13:06.697Z,6.35
2023-05-01T15:15:09.601Z,7.85
2023-05-01T15:17:11.471Z,4.53
2023-05-01T15:19:13.417Z,6.32
2023-05-01T15:21:15.273Z,13.73
2023-05-01T15:23:17.254Z,9.30
2023-05-01T15:25:19.259Z,9.00
2023-05-01T15:27:21.596Z,6.03
2023-05-01T15:29:23.471Z,10.45
2023-05-01T15:31:25.496Z,6.43
2023-05-01T15:33:27.368Z,12.93
2023-05-01T15:35:29.442Z,5.03
2023-05-01T15:37:32.095Z,5.97
2023-05-01T15:39:34.049Z,6.03
2023-05-01T15:41:36.463Z,8.40
2023-05-01T15:43:38.982Z,7.75
2023-05-01T15:47:45.644Z,8.95
2023-05-01T15:49:48.665Z,6.55
2023-05-01T15:51:50.618Z,8.35
2023-05-01T15:53:52.495Z,7.30
2023-05-01T15:55:58.214Z,4.68
2023-05-01T15:58:00.117Z,7.45
2023-05-01T16:00:02.170Z,7.10
2023-05-01T16:02:04.278Z,8.23
2023-05-01T16:04:06.222Z,5.10
2023-05-01T16:06:08.263Z,8.10
2023-05-01T16:08:10.328Z,7.93
2023-05-01T16:10:12.221Z,6.38
2023-05-01T16:12:14.176Z,6.97
2023-05-01T16:14:15.996Z,9.27
2023-05-01T16:16:26.232Z,7.43
2023-05-01T16:18:28.083Z,5.13
2023-05-01T16:20:34.574Z,7.40
2023-05-01T16:22:36.426Z,7.30
2023-05-01T16:24:38.260Z,5.13
2023-05-01T16:26:40.102Z,5.65
2023-05-01T16:28:41.956Z,6.82
2023-05-01T16:30:44.079Z,9.27
2023-05-01T16:32:46.231Z,6.20
2023-05-01T16:34:49.374Z,11.80
2023-05-01T16:36:51.203Z,10.25
2023-05-01T16:38:53.049Z,6.37
2023-05-01T16:40:54.898Z,8.88
2023-05-01T16:43:00.887Z,4.85
2023-05-01T16:45:02.736Z,6.53
2023-05-01T16:47:05.256Z,7.72
2023-05-01T16:49:07.124Z,8.77
2023-05-01T16:51:09.782Z,6.97
2023-05-01T16:55:13.774Z,9.07
2023-05-01T16:57:17.187Z,6.03
2023-05-01T16:59:19.184Z,8.40
2023-05-01T17:01:21.029Z,14.48
2023-05-01T17:03:22.892Z,6.00
2023-05-01T17:05:27.840Z,9.30
2023-05-01T17:07:29.898Z,7.30
2023-05-01T17:09:32.424Z,5.68
2023-05-01T17:11:34.295Z,7.22
2023-05-01T17:13:36.122Z,5.53
2023-05-01T17:15:37.953Z,4.25
2023-05-01T17:17:39.818Z,7.38
2023-05-01T17:19:41.757Z,6.65
2023-05-01T17:21:43.591Z,8.25
2023-05-01T17:23:45.582Z,7.85
2023-05-01T17:25:47.452Z,5.72
2023-05-01T17:27:49.302Z,8.30
2023-05-01T17:29:51.103Z,11.10
2023-05-01T17:31:52.989Z,9.47
2023-05-01T17:33:54.953Z,9.23
2023-05-01T17:35:59.694Z,7.55
2023-05-01T17:38:01.563Z,8.70
2023-05-01T17:40:05.036Z,9.30
2023-05-01T17:42:06.965Z,8.98
2023-05-01T17:44:08.768Z,9.15
2023-05-01T17:46:11.197Z,9.53
2023-05-01T17:48:13.370Z,6.45
2023-05-01T17:50:15.544Z,10.70
2023-05-01T17:52:17.400Z,7.30
2023-05-01T17:54:19.586Z,4.93
2023-05-01T17:56:21.742Z,9.82
2023-05-01T17:58:23.629Z,10.07
2023-05-01T18:00:27.667Z,8.15
2023-05-01T18:02:29.812Z,7.40
2023-05-01T18:04:31.773Z,5.93
2023-05-01T18:06:33.709Z,11.45
2023-05-01T18:08:35.909Z,10.43
2023-05-01T18:10:37.804Z,11.15
2023-05-01T18:12:39.841Z,13.88
2023-05-01T18:14:41.707Z,10.60
2023-05-01T18:16:43.601Z,9.57
2023-05-01T18:18:47.104Z,16.17
2023-05-01T18:20:49.150Z,9.75
2023-05-01T18:22:51.020Z,7.50
2023-05-01T18:24:52.870Z,7.90
2023-05-01T18:26:54.847Z,8.10
2023-05-01T18:28:56.850Z,8.90
2023-05-01T18:30:58.875Z,10.68
2023-05-01T18:33:01.013Z,10.88
2023-05-01T18:35:03.188Z,11.63
2023-05-01T18:37:05.176Z,7.88
2023-05-01T18:39:09.568Z,12.95
2023-05-01T18:41:12.167Z,9.25
2023-05-01T18:43:14.362Z,10.70
2023-05-01T18:45:16.334Z,8.65
2023-05-01T18:47:18.589Z,17.05
2023-05-01T18:49:25.750Z,10.85
2023-05-01T18:51:27.830Z,13.45
2023-05-01T18:53:30.271Z,17.77
2023-05-01T18:55:33.344Z,26.42
2023-05-01T18:57:36.260Z,19.88
2023-05-01T18:59:38.283Z,22.80
2023-05-01T19:01:40.295Z,14.77
2023-05-01T19:03:42.240Z,18.42
2023-05-01T19:05:44.826Z,13.75
2023-05-01T19:07:53.720Z,12.50
2023-05-01T19:09:56.869Z,8.95
2023-05-01T19:12:05.767Z,9.38
2023-05-01T19:14:07.807Z,12.35
2023-05-01T19:16:11.977Z,12.23
2023-05-01T19:18:15.129Z,13.95
2023-05-01T19:20:17.160Z,9.45
2023-05-01T19:22:19.164Z,12.18
2023-05-01T19:24:21.131Z,8.52
2023-05-01T19:26:23.394Z,12.32
2023-05-01T19:28:25.570Z,11.10
2023-05-01T19:30:28.049Z,10.80
2023-05-01T19:32:30.003Z,14.88
2023-05-01T19:34:32.191Z,10.98
2023-05-01T19:36:34.521Z,15.98
2023-05-01T19:38:36.500Z,12.80
2023-05-01T19:40:39.772Z,15.75
2023-05-01T19:42:41.616Z,13.02
2023-05-01T19:44:43.713Z,20.43
2023-05-01T19:46:45.672Z,22.95
2023-05-01T19:48:47.634Z,24.23
2023-05-01T19:50:52.239Z,20.60
2023-05-01T19:52:54.268Z,18.52
2023-05-01T19:54:56.217Z,19.33
2023-05-01T19:56:58.948Z,17.67
2023-05-01T20:01:05.068Z,21.45
2023-05-01T20:03:07.080Z,26.98
2023-05-01T20:05:09.402Z,21.95
2023-05-01T20:07:11.248Z,22.27
2023-05-01T20:09:13.049Z,16.73
2023-05-01T20:11:15.191Z,18.00
2023-05-01T20:13:17.074Z,16.23
2023-05-01T20:15:19.058Z,16.63
2023-05-01T20:17:20.922Z,17.20
2023-05-01T20:19:22.853Z,20.05
2023-05-01T20:21:27.635Z,22.77
2023-05-01T20:23:30.076Z,17.83
2023-05-01T20:25:32.000Z,16.63
2023-05-01T20:27:33.902Z,16.17
2023-05-01T20:29:35.812Z,24.08
2023-05-01T20:31:37.864Z,20.63
2023-05-01T20:33:39.841Z,25.63
2023-05-01T20:35:41.833Z,25.60
2023-05-01T20:37:44.148Z,25.35
2023-05-01T20:39:46.182Z,24.80
2023-05-01T20:41:48.311Z,24.63
2023-05-01T20:43:50.307Z,21.60
2023-05-01T20:45:52.229Z,26.33
2023-05-01T20:47:54.591Z,21.52
2023-05-01T20:49:56.958Z,29.63
2023-05-01T20:51:59.618Z,23.42
2023-05-01T20:56:03.580Z,18.17
2023-05-01T20:58:06.326Z,21.88
2023-05-01T21:02:10.750Z,22.38
2023-05-01T21:04:13.190Z,19.38
2023-05-01T21:08:18.086Z,21.98
2023-05-01T21:10:20.099Z,18.30
2023-05-01T21:12:22.111Z,17.92
2023-05-01T21:14:24.092Z,17.27
2023-05-01T21:16:28.315Z,17.05
2023-05-01T21:18:31.559Z,19.60
2023-05-01T21:20:34.353Z,15.90
2023-05-01T21:22:37.026Z,22.80
2023-05-01T21:26:40.778Z,29.98
2023-05-01T21:28:43.765Z,21.50
2023-05-01T21:30:45.698Z,18.88
2023-05-01T21:32:47.691Z,17.13
2023-05-01T21:34:52.644Z,18.02
2023-05-01T21:36:54.489Z,18.58
2023-05-01T21:38:56.525Z,17.67
2023-05-01T21:40:58.439Z,17.45
2023-05-01T21:43:00.485Z,17.02
2023-05-01T21:45:07.022Z,17.42
2023-05-01T21:47:09.424Z,17.75
2023-05-01T21:49:17.074Z,21.65
2023-05-01T21:51:19.282Z,20.00
2023-05-01T21:53:21.233Z,21.60
2023-05-01T21:55:25.364Z,18.58
2023-05-01T21:57:27.279Z,20.20
2023-05-01T21:59:48.412Z,18.38
2023-05-01T22:01:50.508Z,16.63
2023-05-01T22:03:52.440Z,17.15
2023-05-01T22:05:54.370Z,18.38
2023-05-01T22:07:56.329Z,13.98
2023-05-01T22:09:59.243Z,19.08
2023-05-01T22:12:01.692Z,16.30
2023-05-01T22:14:03.568Z,15.98
2023-05-01T22:16:05.954Z,27.45
2023-05-01T22:18:08.544Z,20.00
2023-05-01T22:20:10.743Z,25.38
2023-05-01T22:22:12.817Z,19.73
2023-05-01T22:24:14.809Z,23.02
2023-05-01T22:26:17.543Z,17.17
2023-05-01T22:30:23.585Z,18.58
2023-05-01T22:32:26.446Z,21.23
2023-05-01T22:34:29.671Z,17.70
2023-05-01T22:36:53.334Z,22.20
2023-05-01T22:39:05.280Z,19.17
2023-05-01T22:47:32.379Z,20.50
2023-05-01T22:49:34.510Z,21.42
2023-05-01T22:51:39.409Z,20.83
2023-05-01T22:53:41.574Z,20.65
2023-05-01T22:55:43.741Z,26.55
2023-05-01T22:57:45.792Z,17.42
2023-05-01T22:59:48.453Z,19.85
2023-05-01T23:03:52.515Z,20.95
2023-05-01T23:05:54.605Z,18.15
2023-05-01T23:07:56.826Z,16.63
2023-05-01T23:09:58.992Z,13.77
2023-05-01T23:12:02.033Z,17.10
2023-05-01T23:14:03.979Z,16.40
2023-05-01T23:16:06.165Z,21.52
2023-05-01T23:18:09.440Z,16.42
2023-05-01T23:20:13.302Z,16.35
2023-05-01T23:22:15.438Z,24.10
2023-05-01T23:24:18.932Z,18.85
2023-05-01T23:26:27.292Z,16.67
2023-05-01T23:28:29.261Z,18.30
2023-05-01T23:30:31.211Z,19.17
2023-05-01T23:32:33.681Z,16.95
2023-05-01T23:34:35.718Z,19.25
2023-05-01T23:36:37.645Z,13.43
2023-05-01T23:38:40.495Z,16.77
2023-05-01T23:40:42.633Z,15.05
2023-05-01T23:42:44.522Z,13.82
2023-05-01T23:44:46.520Z,12.73
2023-05-01T23:46:48.829Z,11.57
2023-05-01T23:48:50.886Z,16.85
2023-05-01T23:50:52.797Z,14.85
2023-05-01T23:52:55.126Z,19.60
2023-05-01T23:54:57.024Z,17.08
2023-05-01T23:56:59.271Z,17.02
2023-05-01T23:59:01.223Z,12.85
